sensor_id;sensor_type;location;lat;lon;timestamp;P1;durP1;ratioP1;P2;durP2;ratioP2
15383;SDS011;7790;53.022;12.968;2023-07-29T00:03:31;6.00;;;4.60;;
15383;SDS011;7790;53.022;12.968;2023-07-29T00:07:32;4.70;;;4.30;;
15383;SDS011;7790;53.022;12.968;2023-07-29T00:11:33;4.70;;;4.30;;
15383;SDS011;7790;53.022;12.968;2023-07-29T00:15:35;3.90;;;3.53;;
15383;SDS011;7790;53.022;12.968;2023-07-29T00:19:36;4.27;;;3.87;;
15383;SDS011;7790;53.022;12.968;2023-07-29T00:23:36;3.90;;;3.50;;
15383;SDS011;7790;53.022;12.968;2023-07-29T00:27:37;3.70;;;3.10;;
15383;SDS011;7790;53.022;12.968;2023-07-29T00:31:38;3.70;;;3.10;;
15383;SDS011;7790;53.022;12.968;2023-07-29T00:35:39;3.10;;;2.90;;
15383;SDS011;7790;53.022;12.968;2023-07-29T00:39:40;3.17;;;2.90;;
15383;SDS011;7790;53.022;12.968;2023-07-29T00:43:43;2.90;;;2.70;;
15383;SDS011;7790;53.022;12.968;2023-07-29T00:47:44;2.73;;;2.53;;
15383;SDS011;7790;53.022;12.968;2023-07-29T00:51:45;2.83;;;2.63;;
15383;SDS011;7790;53.022;12.968;2023-07-29T00:55:46;3.00;;;2.20;;
15383;SDS011;7790;53.022;12.968;2023-07-29T00:59:47;3.20;;;2.50;;
15383;SDS011;7790;53.022;12.968;2023-07-29T01:03:48;2.40;;;2.10;;
15383;SDS011;7790;53.022;12.968;2023-07-29T01:07:57;2.03;;;1.93;;
15383;SDS011;7790;53.022;12.968;2023-07-29T01:12:47;2.00;;;1.90;;
15383;SDS011;7790;53.022;12.968;2023-07-29T01:17:03;2.07;;;1.80;;
15383;SDS011;7790;53.022;12.968;2023-07-29T01:21:08;1.87;;;1.67;;
15383;SDS011;7790;53.022;12.968;2023-07-29T01:25:09;1.90;;;1.73;;
15383;SDS011;7790;53.022;12.968;2023-07-29T01:29:10;1.80;;;1.70;;
15383;SDS011;7790;53.022;12.968;2023-07-29T01:33:16;1.40;;;1.33;;
15383;SDS011;7790;53.022;12.968;2023-07-29T01:37:25;1.40;;;1.20;;
15383;SDS011;7790;53.022;12.968;2023-07-29T01:41:27;1.50;;;1.40;;
15383;SDS011;7790;53.022;12.968;2023-07-29T01:45:30;1.40;;;1.30;;
15383;SDS011;7790;53.022;12.968;2023-07-29T01:49:35;1.40;;;1.30;;
15383;SDS011;7790;53.022;12.968;2023-07-29T01:53:36;1.47;;;1.37;;
15383;SDS011;7790;53.022;12.968;2023-07-29T01:57:39;1.50;;;1.40;;
15383;SDS011;7790;53.022;12.968;2023-07-29T02:01:40;1.43;;;1.30;;
15383;SDS011;7790;53.022;12.968;2023-07-29T02:05:41;1.00;;;1.00;;
15383;SDS011;7790;53.022;12.968;2023-07-29T02:09:44;1.60;;;1.50;;
15383;SDS011;7790;53.022;12.968;2023-07-29T02:13:46;2.30;;;1.60;;
15383;SDS011;7790;53.022;12.968;2023-07-29T02:17:46;1.63;;;1.53;;
15383;SDS011;7790;53.022;12.968;2023-07-29T02:21:50;2.23;;;2.00;;
15383;SDS011;7790;53.022;12.968;2023-07-29T02:25:50;1.70;;;1.60;;
15383;SDS011;7790;53.022;12.968;2023-07-29T02:29:51;1.80;;;1.70;;
15383;SDS011;7790;53.022;12.968;2023-07-29T02:33:52;1.80;;;1.70;;
15383;SDS011;7790;53.022;12.968;2023-07-29T02:37:54;2.17;;;2.07;;
15383;SDS011;7790;53.022;12.968;2023-07-29T02:41:56;1.90;;;1.80;;
15383;SDS011;7790;53.022;12.968;2023-07-29T02:45:58;2.30;;;2.13;;
15383;SDS011;7790;53.022;12.968;2023-07-29T02:49:59;2.13;;;2.00;;
15383;SDS011;7790;53.022;12.968;2023-07-29T02:54:00;2.03;;;1.93;;
15383;SDS011;7790;53.022;12.968;2023-07-29T02:58:01;2.03;;;1.80;;
15383;SDS011;7790;53.022;12.968;2023-07-29T03:02:02;2.67;;;2.03;;
15383;SDS011;7790;53.022;12.968;2023-07-29T03:06:04;1.83;;;1.73;;
15383;SDS011;7790;53.022;12.968;2023-07-29T03:10:06;1.90;;;1.80;;
15383;SDS011;7790;53.022;12.968;2023-07-29T03:14:08;2.20;;;2.07;;
15383;SDS011;7790;53.022;12.968;2023-07-29T03:18:08;1.87;;;1.77;;
15383;SDS011;7790;53.022;12.968;2023-07-29T03:22:09;2.40;;;1.90;;
15383;SDS011;7790;53.022;12.968;2023-07-29T03:26:10;2.53;;;1.73;;
15383;SDS011;7790;53.022;12.968;2023-07-29T03:30:11;4.70;;;2.17;;
15383;SDS011;7790;53.022;12.968;2023-07-29T03:34:12;6.50;;;2.70;;
15383;SDS011;7790;53.022;12.968;2023-07-29T03:38:16;4.50;;;2.40;;
15383;SDS011;7790;53.022;12.968;2023-07-29T03:42:17;6.17;;;2.60;;
15383;SDS011;7790;53.022;12.968;2023-07-29T03:46:18;2.37;;;2.00;;
15383;SDS011;7790;53.022;12.968;2023-07-29T03:50:22;2.43;;;2.20;;
15383;SDS011;7790;53.022;12.968;2023-07-29T03:54:23;2.20;;;2.00;;
15383;SDS011;7790;53.022;12.968;2023-07-29T03:58:24;2.10;;;2.00;;
15383;SDS011;7790;53.022;12.968;2023-07-29T04:02:25;3.23;;;2.27;;
15383;SDS011;7790;53.022;12.968;2023-07-29T04:06:26;2.17;;;2.07;;
15383;SDS011;7790;53.022;12.968;2023-07-29T04:10:27;3.57;;;2.10;;
15383;SDS011;7790;53.022;12.968;2023-07-29T04:14:30;3.57;;;2.00;;
15383;SDS011;7790;53.022;12.968;2023-07-29T04:18:31;3.10;;;2.10;;
15383;SDS011;7790;53.022;12.968;2023-07-29T04:22:32;2.10;;;2.00;;
15383;SDS011;7790;53.022;12.968;2023-07-29T04:26:33;2.33;;;2.13;;
15383;SDS011;7790;53.022;12.968;2023-07-29T04:30:33;2.90;;;2.40;;
15383;SDS011;7790;53.022;12.968;2023-07-29T04:34:34;2.40;;;2.20;;
15383;SDS011;7790;53.022;12.968;2023-07-29T04:38:37;2.13;;;2.03;;
15383;SDS011;7790;53.022;12.968;2023-07-29T04:42:38;3.37;;;2.00;;
15383;SDS011;7790;53.022;12.968;2023-07-29T04:46:39;2.30;;;2.10;;
15383;SDS011;7790;53.022;12.968;2023-07-29T04:50:40;2.00;;;1.77;;
15383;SDS011;7790;53.022;12.968;2023-07-29T04:54:41;2.10;;;1.70;;
15383;SDS011;7790;53.022;12.968;2023-07-29T04:58:42;1.80;;;1.70;;
15383;SDS011;7790;53.022;12.968;2023-07-29T05:02:43;1.80;;;1.70;;
15383;SDS011;7790;53.022;12.968;2023-07-29T05:06:44;2.27;;;1.87;;
15383;SDS011;7790;53.022;12.968;2023-07-29T05:10:48;2.20;;;2.00;;
15383;SDS011;7790;53.022;12.968;2023-07-29T05:14:50;2.40;;;2.00;;
15383;SDS011;7790;53.022;12.968;2023-07-29T05:18:51;2.03;;;1.87;;
15383;SDS011;7790;53.022;12.968;2023-07-29T05:22:51;3.13;;;1.80;;
15383;SDS011;7790;53.022;12.968;2023-07-29T05:26:52;2.07;;;1.70;;
15383;SDS011;7790;53.022;12.968;2023-07-29T05:30:53;2.33;;;1.80;;
15383;SDS011;7790;53.022;12.968;2023-07-29T05:34:54;2.07;;;1.63;;
15383;SDS011;7790;53.022;12.968;2023-07-29T05:38:56;3.30;;;2.13;;
15383;SDS011;7790;53.022;12.968;2023-07-29T05:42:57;2.00;;;1.90;;
15383;SDS011;7790;53.022;12.968;2023-07-29T05:46:59;2.07;;;1.97;;
15383;SDS011;7790;53.022;12.968;2023-07-29T05:51:00;3.07;;;2.17;;
15383;SDS011;7790;53.022;12.968;2023-07-29T05:55:01;2.00;;;1.87;;
15383;SDS011;7790;53.022;12.968;2023-07-29T05:59:02;2.20;;;2.00;;
15383;SDS011;7790;53.022;12.968;2023-07-29T06:03:03;2.20;;;2.10;;
15383;SDS011;7790;53.022;12.968;2023-07-29T06:07:04;3.53;;;1.90;;
15383;SDS011;7790;53.022;12.968;2023-07-29T06:11:05;2.47;;;1.93;;
15383;SDS011;7790;53.022;12.968;2023-07-29T06:15:07;2.87;;;2.30;;
15383;SDS011;7790;53.022;12.968;2023-07-29T06:19:08;2.10;;;2.00;;
15383;SDS011;7790;53.022;12.968;2023-07-29T06:23:09;2.33;;;2.20;;
15383;SDS011;7790;53.022;12.968;2023-07-29T06:27:10;2.30;;;2.10;;
15383;SDS011;7790;53.022;12.968;2023-07-29T06:31:10;2.20;;;2.00;;
15383;SDS011;7790;53.022;12.968;2023-07-29T06:35:11;2.60;;;2.40;;
15383;SDS011;7790;53.022;12.968;2023-07-29T06:39:12;2.23;;;2.03;;
15383;SDS011;7790;53.022;12.968;2023-07-29T06:43:13;2.37;;;2.17;;
15383;SDS011;7790;53.022;12.968;2023-07-29T06:47:14;2.03;;;1.93;;
15383;SDS011;7790;53.022;12.968;2023-07-29T06:51:15;2.40;;;2.20;;
15383;SDS011;7790;53.022;12.968;2023-07-29T06:55:16;2.23;;;2.13;;
15383;SDS011;7790;53.022;12.968;2023-07-29T06:59:17;2.10;;;2.00;;
15383;SDS011;7790;53.022;12.968;2023-07-29T07:03:18;2.33;;;2.17;;
15383;SDS011;7790;53.022;12.968;2023-07-29T07:07:18;2.20;;;2.10;;
15383;SDS011;7790;53.022;12.968;2023-07-29T07:11:19;2.10;;;1.90;;
15383;SDS011;7790;53.022;12.968;2023-07-29T07:15:20;2.20;;;2.10;;
15383;SDS011;7790;53.022;12.968;2023-07-29T07:19:21;1.90;;;1.80;;
15383;SDS011;7790;53.022;12.968;2023-07-29T07:23:22;2.33;;;2.13;;
15383;SDS011;7790;53.022;12.968;2023-07-29T07:27:23;3.00;;;2.00;;
15383;SDS011;7790;53.022;12.968;2023-07-29T07:31:24;4.13;;;2.80;;
15383;SDS011;7790;53.022;12.968;2023-07-29T07:35:24;3.20;;;2.23;;
15383;SDS011;7790;53.022;12.968;2023-07-29T07:39:25;4.23;;;2.50;;
15383;SDS011;7790;53.022;12.968;2023-07-29T07:43:26;2.57;;;2.27;;
15383;SDS011;7790;53.022;12.968;2023-07-29T07:47:27;3.50;;;2.20;;
15383;SDS011;7790;53.022;12.968;2023-07-29T07:51:28;3.10;;;2.00;;
15383;SDS011;7790;53.022;12.968;2023-07-29T07:55:29;2.53;;;2.10;;
15383;SDS011;7790;53.022;12.968;2023-07-29T07:59:30;6.53;;;2.33;;
15383;SDS011;7790;53.022;12.968;2023-07-29T08:03:31;2.03;;;1.93;;
15383;SDS011;7790;53.022;12.968;2023-07-29T08:07:32;3.03;;;2.17;;
15383;SDS011;7790;53.022;12.968;2023-07-29T08:11:33;2.40;;;2.20;;
15383;SDS011;7790;53.022;12.968;2023-07-29T08:15:34;2.50;;;2.30;;
15383;SDS011;7790;53.022;12.968;2023-07-29T08:19:34;2.27;;;2.07;;
15383;SDS011;7790;53.022;12.968;2023-07-29T08:23:36;3.77;;;2.30;;
15383;SDS011;7790;53.022;12.968;2023-07-29T08:27:37;3.50;;;2.07;;
15383;SDS011;7790;53.022;12.968;2023-07-29T08:31:38;3.57;;;2.00;;
15383;SDS011;7790;53.022;12.968;2023-07-29T08:35:39;2.50;;;2.30;;
15383;SDS011;7790;53.022;12.968;2023-07-29T08:39:40;2.50;;;2.30;;
15383;SDS011;7790;53.022;12.968;2023-07-29T08:48:12;3.07;;;2.37;;
15383;SDS011;7790;53.022;12.968;2023-07-29T08:52:19;4.93;;;2.27;;
15383;SDS011;7790;53.022;12.968;2023-07-29T08:56:21;3.13;;;2.40;;
15383;SDS011;7790;53.022;12.968;2023-07-29T09:00:22;6.10;;;2.80;;
15383;SDS011;7790;53.022;12.968;2023-07-29T09:04:23;4.77;;;2.73;;
15383;SDS011;7790;53.022;12.968;2023-07-29T09:08:26;10.23;;;3.30;;
15383;SDS011;7790;53.022;12.968;2023-07-29T09:12:27;7.63;;;3.30;;
15383;SDS011;7790;53.022;12.968;2023-07-29T09:16:28;6.87;;;3.33;;
15383;SDS011;7790;53.022;12.968;2023-07-29T09:20:30;5.17;;;3.13;;
15383;SDS011;7790;53.022;12.968;2023-07-29T09:24:33;6.17;;;3.30;;
15383;SDS011;7790;53.022;12.968;2023-07-29T09:28:35;5.93;;;3.10;;
15383;SDS011;7790;53.022;12.968;2023-07-29T09:32:38;3.93;;;3.13;;
15383;SDS011;7790;53.022;12.968;2023-07-29T09:36:40;5.10;;;3.47;;
15383;SDS011;7790;53.022;12.968;2023-07-29T09:40:41;4.47;;;3.07;;
15383;SDS011;7790;53.022;12.968;2023-07-29T09:44:42;4.13;;;3.10;;
15383;SDS011;7790;53.022;12.968;2023-07-29T09:48:43;4.03;;;3.00;;
15383;SDS011;7790;53.022;12.968;2023-07-29T09:52:46;5.60;;;3.30;;
15383;SDS011;7790;53.022;12.968;2023-07-29T09:56:48;4.97;;;3.00;;
15383;SDS011;7790;53.022;12.968;2023-07-29T10:00:49;4.57;;;2.80;;
15383;SDS011;7790;53.022;12.968;2023-07-29T10:04:51;4.03;;;2.80;;
15383;SDS011;7790;53.022;12.968;2023-07-29T10:08:52;3.23;;;2.60;;
15383;SDS011;7790;53.022;12.968;2023-07-29T10:12:54;3.30;;;2.70;;
15383;SDS011;7790;53.022;12.968;2023-07-29T10:16:56;3.67;;;2.80;;
15383;SDS011;7790;53.022;12.968;2023-07-29T10:20:58;6.20;;;3.17;;
15383;SDS011;7790;53.022;12.968;2023-07-29T10:25:02;4.63;;;3.47;;
15383;SDS011;7790;53.022;12.968;2023-07-29T10:29:06;3.53;;;3.10;;
15383;SDS011;7790;53.022;12.968;2023-07-29T10:33:10;4.90;;;3.30;;
15383;SDS011;7790;53.022;12.968;2023-07-29T10:37:11;3.87;;;2.93;;
15383;SDS011;7790;53.022;12.968;2023-07-29T10:41:12;4.63;;;2.97;;
15383;SDS011;7790;53.022;12.968;2023-07-29T10:45:19;5.63;;;3.27;;
15383;SDS011;7790;53.022;12.968;2023-07-29T10:49:22;3.53;;;3.23;;
15383;SDS011;7790;53.022;12.968;2023-07-29T10:53:29;5.20;;;2.70;;
15383;SDS011;7790;53.022;12.968;2023-07-29T10:57:34;3.77;;;2.80;;
15383;SDS011;7790;53.022;12.968;2023-07-29T11:01:37;3.53;;;2.87;;
15383;SDS011;7790;53.022;12.968;2023-07-29T11:05:44;2.80;;;2.30;;
15383;SDS011;7790;53.022;12.968;2023-07-29T11:09:53;3.73;;;2.77;;
15383;SDS011;7790;53.022;12.968;2023-07-29T11:13:55;4.63;;;2.57;;
15383;SDS011;7790;53.022;12.968;2023-07-29T11:17:57;3.80;;;2.60;;
15383;SDS011;7790;53.022;12.968;2023-07-29T11:21:59;2.50;;;2.30;;
15383;SDS011;7790;53.022;12.968;2023-07-29T11:26:01;2.70;;;2.33;;
15383;SDS011;7790;53.022;12.968;2023-07-29T11:30:04;5.10;;;2.73;;
15383;SDS011;7790;53.022;12.968;2023-07-29T11:34:07;6.10;;;2.60;;
15383;SDS011;7790;53.022;12.968;2023-07-29T11:38:07;4.00;;;2.77;;
15383;SDS011;7790;53.022;12.968;2023-07-29T11:42:12;4.30;;;2.60;;
15383;SDS011;7790;53.022;12.968;2023-07-29T11:46:15;2.60;;;2.40;;
15383;SDS011;7790;53.022;12.968;2023-07-29T11:50:21;3.40;;;2.30;;
15383;SDS011;7790;53.022;12.968;2023-07-29T11:54:22;2.50;;;2.30;;
15383;SDS011;7790;53.022;12.968;2023-07-29T11:58:23;5.67;;;2.43;;
15383;SDS011;7790;53.022;12.968;2023-07-29T12:02:24;6.77;;;2.70;;
15383;SDS011;7790;53.022;12.968;2023-07-29T12:06:26;4.40;;;2.43;;
15383;SDS011;7790;53.022;12.968;2023-07-29T12:10:27;6.50;;;2.50;;
15383;SDS011;7790;53.022;12.968;2023-07-29T12:14:28;4.13;;;2.20;;
15383;SDS011;7790;53.022;12.968;2023-07-29T12:18:30;2.47;;;2.27;;
15383;SDS011;7790;53.022;12.968;2023-07-29T12:22:32;4.10;;;2.07;;
15383;SDS011;7790;53.022;12.968;2023-07-29T12:26:33;2.80;;;2.10;;
15383;SDS011;7790;53.022;12.968;2023-07-29T12:30:41;3.27;;;2.53;;
15383;SDS011;7790;53.022;12.968;2023-07-29T12:34:42;2.63;;;1.90;;
15383;SDS011;7790;53.022;12.968;2023-07-29T12:38:43;4.83;;;2.57;;
15383;SDS011;7790;53.022;12.968;2023-07-29T12:42:45;2.87;;;2.27;;
15383;SDS011;7790;53.022;12.968;2023-07-29T12:46:46;2.43;;;2.00;;
15383;SDS011;7790;53.022;12.968;2023-07-29T12:50:46;2.70;;;2.40;;
15383;SDS011;7790;53.022;12.968;2023-07-29T12:54:47;3.87;;;2.30;;
15383;SDS011;7790;53.022;12.968;2023-07-29T12:58:48;3.03;;;2.30;;
15383;SDS011;7790;53.022;12.968;2023-07-29T13:02:49;3.37;;;2.37;;
15383;SDS011;7790;53.022;12.968;2023-07-29T13:06:50;4.50;;;2.10;;
15383;SDS011;7790;53.022;12.968;2023-07-29T13:10:51;3.07;;;2.30;;
15383;SDS011;7790;53.022;12.968;2023-07-29T13:14:51;2.33;;;2.13;;
15383;SDS011;7790;53.022;12.968;2023-07-29T13:18:52;3.37;;;2.23;;
15383;SDS011;7790;53.022;12.968;2023-07-29T13:22:53;2.60;;;2.13;;
15383;SDS011;7790;53.022;12.968;2023-07-29T13:26:54;2.13;;;2.00;;
15383;SDS011;7790;53.022;12.968;2023-07-29T13:30:55;2.20;;;2.00;;
15383;SDS011;7790;53.022;12.968;2023-07-29T13:34:55;1.93;;;1.83;;
15383;SDS011;7790;53.022;12.968;2023-07-29T13:38:56;2.23;;;2.03;;
15383;SDS011;7790;53.022;12.968;2023-07-29T13:42:57;4.23;;;2.40;;
15383;SDS011;7790;53.022;12.968;2023-07-29T13:46:58;2.23;;;2.00;;
15383;SDS011;7790;53.022;12.968;2023-07-29T13:50:59;2.43;;;2.13;;
15383;SDS011;7790;53.022;12.968;2023-07-29T13:55:00;2.30;;;2.10;;
15383;SDS011;7790;53.022;12.968;2023-07-29T13:59:00;2.30;;;2.10;;
15383;SDS011;7790;53.022;12.968;2023-07-29T14:03:01;2.40;;;2.20;;
15383;SDS011;7790;53.022;12.968;2023-07-29T14:07:03;2.10;;;1.90;;
15383;SDS011;7790;53.022;12.968;2023-07-29T14:11:04;2.20;;;2.10;;
15383;SDS011;7790;53.022;12.968;2023-07-29T14:15:05;2.50;;;2.30;;
15383;SDS011;7790;53.022;12.968;2023-07-29T14:19:06;2.50;;;2.10;;
15383;SDS011;7790;53.022;12.968;2023-07-29T14:23:07;1.90;;;1.80;;
15383;SDS011;7790;53.022;12.968;2023-07-29T14:27:08;2.57;;;2.13;;
15383;SDS011;7790;53.022;12.968;2023-07-29T14:31:09;2.30;;;2.00;;
15383;SDS011;7790;53.022;12.968;2023-07-29T14:35:10;2.20;;;2.00;;
15383;SDS011;7790;53.022;12.968;2023-07-29T14:39:11;2.23;;;2.03;;
15383;SDS011;7790;53.022;12.968;2023-07-29T14:43:12;2.50;;;2.30;;
15383;SDS011;7790;53.022;12.968;2023-07-29T14:47:13;2.50;;;2.30;;
15383;SDS011;7790;53.022;12.968;2023-07-29T14:51:14;2.60;;;2.40;;
15383;SDS011;7790;53.022;12.968;2023-07-29T14:55:15;2.80;;;2.60;;
15383;SDS011;7790;53.022;12.968;2023-07-29T14:59:16;2.83;;;2.63;;
15383;SDS011;7790;53.022;12.968;2023-07-29T15:03:17;2.53;;;2.33;;
15383;SDS011;7790;53.022;12.968;2023-07-29T15:07:18;2.70;;;2.50;;
15383;SDS011;7790;53.022;12.968;2023-07-29T15:11:19;3.03;;;2.77;;
15383;SDS011;7790;53.022;12.968;2023-07-29T15:15:20;2.83;;;2.60;;
15383;SDS011;7790;53.022;12.968;2023-07-29T15:19:21;2.87;;;2.60;;
15383;SDS011;7790;53.022;12.968;2023-07-29T15:23:22;3.10;;;2.80;;
15383;SDS011;7790;53.022;12.968;2023-07-29T15:27:23;2.80;;;2.60;;
15383;SDS011;7790;53.022;12.968;2023-07-29T15:31:24;2.50;;;2.30;;
15383;SDS011;7790;53.022;12.968;2023-07-29T15:35:25;2.80;;;2.50;;
15383;SDS011;7790;53.022;12.968;2023-07-29T15:39:26;2.17;;;2.00;;
15383;SDS011;7790;53.022;12.968;2023-07-29T15:43:28;2.73;;;2.53;;
15383;SDS011;7790;53.022;12.968;2023-07-29T15:47:29;2.83;;;2.63;;
15383;SDS011;7790;53.022;12.968;2023-07-29T15:51:30;2.57;;;2.37;;
15383;SDS011;7790;53.022;12.968;2023-07-29T15:55:31;2.57;;;2.37;;
15383;SDS011;7790;53.022;12.968;2023-07-29T15:59:32;3.10;;;2.30;;
15383;SDS011;7790;53.022;12.968;2023-07-29T16:03:33;2.50;;;2.30;;
15383;SDS011;7790;53.022;12.968;2023-07-29T16:07:34;2.53;;;2.33;;
15383;SDS011;7790;53.022;12.968;2023-07-29T16:11:35;2.43;;;2.23;;
15383;SDS011;7790;53.022;12.968;2023-07-29T16:15:35;3.20;;;2.20;;
15383;SDS011;7790;53.022;12.968;2023-07-29T16:19:51;2.57;;;2.30;;
15383;SDS011;7790;53.022;12.968;2023-07-29T16:23:53;2.37;;;2.27;;
15383;SDS011;7790;53.022;12.968;2023-07-29T16:27:54;2.37;;;2.17;;
15383;SDS011;7790;53.022;12.968;2023-07-29T16:31:57;2.50;;;2.30;;
15383;SDS011;7790;53.022;12.968;2023-07-29T16:35:58;2.60;;;2.07;;
15383;SDS011;7790;53.022;12.968;2023-07-29T16:39:59;2.20;;;2.00;;
15383;SDS011;7790;53.022;12.968;2023-07-29T16:43:59;2.53;;;2.33;;
15383;SDS011;7790;53.022;12.968;2023-07-29T16:48:00;2.30;;;2.10;;
15383;SDS011;7790;53.022;12.968;2023-07-29T16:52:01;2.00;;;1.90;;
15383;SDS011;7790;53.022;12.968;2023-07-29T16:56:02;2.30;;;2.10;;
15383;SDS011;7790;53.022;12.968;2023-07-29T17:00:03;1.97;;;1.87;;
15383;SDS011;7790;53.022;12.968;2023-07-29T17:04:05;2.37;;;2.17;;
15383;SDS011;7790;53.022;12.968;2023-07-29T17:08:05;2.30;;;2.10;;
15383;SDS011;7790;53.022;12.968;2023-07-29T17:12:06;2.20;;;1.80;;
15383;SDS011;7790;53.022;12.968;2023-07-29T17:16:07;2.80;;;1.90;;
15383;SDS011;7790;53.022;12.968;2023-07-29T17:20:09;2.40;;;2.20;;
15383;SDS011;7790;53.022;12.968;2023-07-29T17:24:10;2.73;;;2.47;;
15383;SDS011;7790;53.022;12.968;2023-07-29T17:28:11;1.97;;;1.87;;
15383;SDS011;7790;53.022;12.968;2023-07-29T17:32:12;2.53;;;2.33;;
15383;SDS011;7790;53.022;12.968;2023-07-29T17:36:13;2.10;;;2.00;;
15383;SDS011;7790;53.022;12.968;2023-07-29T17:40:13;2.10;;;2.00;;
15383;SDS011;7790;53.022;12.968;2023-07-29T17:44:15;3.53;;;2.13;;
15383;SDS011;7790;53.022;12.968;2023-07-29T17:48:16;2.27;;;2.17;;
15383;SDS011;7790;53.022;12.968;2023-07-29T17:52:17;2.93;;;2.50;;
15383;SDS011;7790;53.022;12.968;2023-07-29T17:56:19;2.30;;;2.10;;
15383;SDS011;7790;53.022;12.968;2023-07-29T18:00:20;2.10;;;2.00;;
15383;SDS011;7790;53.022;12.968;2023-07-29T18:04:22;2.30;;;2.10;;
15383;SDS011;7790;53.022;12.968;2023-07-29T18:08:23;2.23;;;2.13;;
15383;SDS011;7790;53.022;12.968;2023-07-29T18:12:24;2.00;;;1.90;;
15383;SDS011;7790;53.022;12.968;2023-07-29T18:16:25;2.60;;;2.40;;
15383;SDS011;7790;53.022;12.968;2023-07-29T18:20:26;2.60;;;2.40;;
15383;SDS011;7790;53.022;12.968;2023-07-29T18:24:26;2.40;;;2.20;;
15383;SDS011;7790;53.022;12.968;2023-07-29T18:28:28;2.27;;;2.07;;
15383;SDS011;7790;53.022;12.968;2023-07-29T18:32:29;2.17;;;2.00;;
15383;SDS011;7790;53.022;12.968;2023-07-29T18:36:30;3.00;;;2.10;;
15383;SDS011;7790;53.022;12.968;2023-07-29T18:40:31;2.67;;;2.47;;
15383;SDS011;7790;53.022;12.968;2023-07-29T18:44:32;2.50;;;2.30;;
15383;SDS011;7790;53.022;12.968;2023-07-29T18:48:33;2.63;;;2.43;;
15383;SDS011;7790;53.022;12.968;2023-07-29T18:52:34;2.90;;;2.70;;
15383;SDS011;7790;53.022;12.968;2023-07-29T18:56:35;3.20;;;3.00;;
15383;SDS011;7790;53.022;12.968;2023-07-29T19:00:36;3.37;;;3.07;;
15383;SDS011;7790;53.022;12.968;2023-07-29T19:04:38;4.20;;;3.43;;
15383;SDS011;7790;53.022;12.968;2023-07-29T19:08:39;3.70;;;3.40;;
15383;SDS011;7790;53.022;12.968;2023-07-29T19:12:40;4.07;;;3.63;;
15383;SDS011;7790;53.022;12.968;2023-07-29T19:16:43;4.63;;;4.13;;
15383;SDS011;7790;53.022;12.968;2023-07-29T19:20:47;4.70;;;3.73;;
15383;SDS011;7790;53.022;12.968;2023-07-29T19:24:51;4.13;;;3.83;;
15383;SDS011;7790;53.022;12.968;2023-07-29T19:28:52;4.00;;;3.70;;
15383;SDS011;7790;53.022;12.968;2023-07-29T19:32:55;5.23;;;4.23;;
15383;SDS011;7790;53.022;12.968;2023-07-29T19:36:56;4.33;;;3.93;;
15383;SDS011;7790;53.022;12.968;2023-07-29T19:40:59;4.60;;;4.13;;
15383;SDS011;7790;53.022;12.968;2023-07-29T19:45:00;5.00;;;3.93;;
15383;SDS011;7790;53.022;12.968;2023-07-29T19:49:01;5.27;;;4.10;;
15383;SDS011;7790;53.022;12.968;2023-07-29T19:53:02;5.20;;;3.93;;
15383;SDS011;7790;53.022;12.968;2023-07-29T19:57:03;4.23;;;3.83;;
15383;SDS011;7790;53.022;12.968;2023-07-29T20:01:04;4.50;;;4.10;;
15383;SDS011;7790;53.022;12.968;2023-07-29T20:05:05;4.20;;;3.90;;
15383;SDS011;7790;53.022;12.968;2023-07-29T20:09:06;4.10;;;3.80;;
15383;SDS011;7790;53.022;12.968;2023-07-29T20:13:07;4.20;;;3.90;;
15383;SDS011;7790;53.022;12.968;2023-07-29T20:17:08;4.33;;;4.03;;
15383;SDS011;7790;53.022;12.968;2023-07-29T20:21:09;4.20;;;3.90;;
15383;SDS011;7790;53.022;12.968;2023-07-29T20:25:10;6.20;;;4.30;;
15383;SDS011;7790;53.022;12.968;2023-07-29T20:29:11;7.53;;;4.23;;
15383;SDS011;7790;53.022;12.968;2023-07-29T20:33:12;4.43;;;4.03;;
15383;SDS011;7790;53.022;12.968;2023-07-29T20:37:13;4.07;;;3.63;;
15383;SDS011;7790;53.022;12.968;2023-07-29T20:41:13;3.97;;;3.57;;
15383;SDS011;7790;53.022;12.968;2023-07-29T20:45:15;6.93;;;3.70;;
15383;SDS011;7790;53.022;12.968;2023-07-29T20:49:16;6.83;;;3.90;;
15383;SDS011;7790;53.022;12.968;2023-07-29T20:53:17;5.13;;;4.60;;
15383;SDS011;7790;53.022;12.968;2023-07-29T20:57:18;7.47;;;4.90;;
15383;SDS011;7790;53.022;12.968;2023-07-29T21:01:19;6.67;;;4.60;;
15383;SDS011;7790;53.022;12.968;2023-07-29T21:05:20;5.43;;;4.40;;
15383;SDS011;7790;53.022;12.968;2023-07-29T21:09:21;5.00;;;4.60;;
15383;SDS011;7790;53.022;12.968;2023-07-29T21:13:22;6.77;;;4.47;;
15383;SDS011;7790;53.022;12.968;2023-07-29T21:17:22;4.83;;;4.20;;
15383;SDS011;7790;53.022;12.968;2023-07-29T21:21:23;4.67;;;4.27;;
15383;SDS011;7790;53.022;12.968;2023-07-29T21:25:24;7.50;;;3.93;;
15383;SDS011;7790;53.022;12.968;2023-07-29T21:29:25;3.73;;;3.43;;
15383;SDS011;7790;53.022;12.968;2023-07-29T21:33:26;4.73;;;3.63;;
15383;SDS011;7790;53.022;12.968;2023-07-29T21:37:28;4.33;;;3.30;;
15383;SDS011;7790;53.022;12.968;2023-07-29T21:41:28;4.77;;;3.17;;
15383;SDS011;7790;53.022;12.968;2023-07-29T21:45:30;4.73;;;3.40;;
15383;SDS011;7790;53.022;12.968;2023-07-29T21:49:31;4.20;;;3.20;;
15383;SDS011;7790;53.022;12.968;2023-07-29T21:53:32;4.80;;;3.10;;
15383;SDS011;7790;53.022;12.968;2023-07-29T21:57:32;3.83;;;3.07;;
15383;SDS011;7790;53.022;12.968;2023-07-29T22:01:33;4.30;;;2.70;;
15383;SDS011;7790;53.022;12.968;2023-07-29T22:05:34;4.83;;;3.33;;
15383;SDS011;7790;53.022;12.968;2023-07-29T22:09:35;2.90;;;2.57;;
15383;SDS011;7790;53.022;12.968;2023-07-29T22:13:36;2.77;;;2.53;;
15383;SDS011;7790;53.022;12.968;2023-07-29T22:17:37;2.83;;;2.60;;
15383;SDS011;7790;53.022;12.968;2023-07-29T22:21:38;4.20;;;2.60;;
15383;SDS011;7790;53.022;12.968;2023-07-29T22:25:39;2.50;;;2.40;;
15383;SDS011;7790;53.022;12.968;2023-07-29T22:29:40;2.20;;;1.90;;
15383;SDS011;7790;53.022;12.968;2023-07-29T22:33:40;3.30;;;2.30;;
15383;SDS011;7790;53.022;12.968;2023-07-29T22:37:41;2.57;;;2.37;;
15383;SDS011;7790;53.022;12.968;2023-07-29T22:41:42;2.30;;;2.10;;
15383;SDS011;7790;53.022;12.968;2023-07-29T22:45:49;2.47;;;2.10;;
15383;SDS011;7790;53.022;12.968;2023-07-29T22:49:54;2.10;;;2.00;;
15383;SDS011;7790;53.022;12.968;2023-07-29T22:53:54;2.37;;;1.90;;
15383;SDS011;7790;53.022;12.968;2023-07-29T22:57:55;2.90;;;1.97;;
15383;SDS011;7790;53.022;12.968;2023-07-29T23:01:56;2.87;;;2.07;;
15383;SDS011;7790;53.022;12.968;2023-07-29T23:05:57;4.53;;;2.13;;
15383;SDS011;7790;53.022;12.968;2023-07-29T23:09:58;2.00;;;1.90;;
15383;SDS011;7790;53.022;12.968;2023-07-29T23:13:59;2.30;;;2.10;;
15383;SDS011;7790;53.022;12.968;2023-07-29T23:18:00;2.87;;;2.07;;
15383;SDS011;7790;53.022;12.968;2023-07-29T23:22:01;3.27;;;2.50;;
15383;SDS011;7790;53.022;12.968;2023-07-29T23:26:02;3.20;;;2.30;;
15383;SDS011;7790;53.022;12.968;2023-07-29T23:30:03;2.57;;;1.97;;
15383;SDS011;7790;53.022;12.968;2023-07-29T23:34:06;2.47;;;2.27;;
15383;SDS011;7790;53.022;12.968;2023-07-29T23:38:07;4.30;;;1.93;;
15383;SDS011;7790;53.022;12.968;2023-07-29T23:42:08;2.47;;;2.10;;
15383;SDS011;7790;53.022;12.968;2023-07-29T23:46:10;2.00;;;1.80;;
15383;SDS011;7790;53.022;12.968;2023-07-29T23:50:11;3.27;;;2.00;;
15383;SDS011;7790;53.022;12.968;2023-07-29T23:54:11;2.43;;;1.87;;
15383;SDS011;7790;53.022;12.968;2023-07-29T23:58:13;2.73;;;1.90;;
